Time;durP1;ratioP1;P1;durP2;ratioP2;P2;SDS_P1;SDS_P2;PMS_P1;PMS_P2;Temp;Humidity;BMP_temperature;BMP_pressure;BME280_temperature;BME280_humidity;BME280_pressure;Samples;Min_cycle;Max_cycle;Signal;HPM_P1;HPM_P2
2021/06/11 00:00:13;;;;;;;8.55;6.30;;;15.80;99.90;;;;;;5018319;28;20041;-81
2021/06/11 00:02:39;;;;;;;7.35;6.60;;;15.70;99.90;;;;;;5034748;28;20022;-81
2021/06/11 00:05:07;;;;;;;7.03;6.05;;;15.70;99.90;;;;;;5034463;28;20456;-81
2021/06/11 00:07:36;;;;;;;8.98;6.75;;;15.90;99.90;;;;;;5035031;28;20141;-81
2021/06/11 00:10:05;;;;;;;13.27;6.82;;;15.80;99.90;;;;;;5034717;28;20056;-81
2021/06/11 00:12:31;;;;;;;10.00;6.72;;;15.70;99.90;;;;;;5034447;28;20044;-80
2021/06/11 00:14:58;;;;;;;11.88;6.32;;;15.50;99.90;;;;;;5035757;28;20104;-80
2021/06/11 00:17:24;;;;;;;11.35;6.43;;;15.40;99.90;;;;;;5034346;28;20547;-80
2021/06/11 00:19:50;;;;;;;9.27;6.55;;;15.60;99.90;;;;;;5035688;28;20030;-81
2021/06/11 00:22:16;;;;;;;12.95;6.93;;;15.60;99.90;;;;;;5034082;28;20021;-80
2021/06/11 00:24:42;;;;;;;9.40;6.95;;;15.50;99.90;;;;;;5035854;28;20025;-79
2021/06/11 00:27:08;;;;;;;10.68;7.15;;;15.40;99.90;;;;;;5017806;28;20030;-80
2021/06/11 00:29:34;;;;;;;8.55;6.95;;;15.30;99.90;;;;;;5035903;28;20026;-82
2021/06/11 00:32:00;;;;;;;7.93;7.13;;;15.20;99.90;;;;;;5034166;28;20026;-80
2021/06/11 00:34:26;;;;;;;8.20;6.10;;;15.20;99.90;;;;;;5017565;28;20041;-80
2021/06/11 00:36:52;;;;;;;11.38;6.15;;;15.10;99.90;;;;;;5034504;28;20034;-80
2021/06/11 00:39:18;;;;;;;10.60;6.47;;;15.30;99.90;;;;;;5035262;28;20484;-81
2021/06/11 00:41:45;;;;;;;6.35;5.65;;;15.30;99.90;;;;;;5035468;28;20037;-79
2021/06/11 00:44:11;;;;;;;5.93;5.43;;;15.30;99.90;;;;;;5035429;28;20017;-79
2021/06/11 00:46:36;;;;;;;8.70;6.43;;;15.20;99.90;;;;;;5033753;28;20029;-80
2021/06/11 00:49:02;;;;;;;6.78;6.07;;;15.10;99.90;;;;;;5033791;28;20117;-80
2021/06/11 00:51:28;;;;;;;7.28;6.57;;;15.10;99.90;;;;;;5034942;28;20059;-80
2021/06/11 00:53:55;;;;;;;6.13;5.53;;;15.20;99.90;;;;;;5034963;28;20388;-80
2021/06/11 00:56:21;;;;;;;6.70;6.10;;;15.30;99.90;;;;;;5033367;28;20025;-80
2021/06/11 00:58:47;;;;;;;9.05;6.30;;;15.40;99.90;;;;;;5032810;28;20033;-80
2021/06/11 01:01:13;;;;;;;11.95;5.80;;;15.30;99.90;;;;;;5017103;28;20083;-80
2021/06/11 01:03:40;;;;;;;7.03;5.82;;;15.30;99.90;;;;;;5033721;28;20022;-80
2021/06/11 01:06:06;;;;;;;6.00;5.40;;;15.30;99.90;;;;;;5033465;28;20029;-80
2021/06/11 01:08:32;;;;;;;6.60;5.50;;;15.20;99.90;;;;;;5035080;28;20029;-80
2021/06/11 01:10:58;;;;;;;6.13;5.57;;;15.10;99.90;;;;;;5033367;28;20075;-80
2021/06/11 01:13:25;;;;;;;7.65;6.13;;;15.20;99.90;;;;;;5033213;28;20033;-80
2021/06/11 01:15:51;;;;;;;6.57;5.78;;;15.20;99.90;;;;;;5033262;28;20117;-80
2021/06/11 01:18:19;;;;;;;7.38;6.38;;;15.30;99.90;;;;;;5033367;28;20041;-80
2021/06/11 01:20:46;;;;;;;7.38;5.80;;;15.30;99.90;;;;;;5034411;28;20018;-80
2021/06/11 01:23:27;;;;;;;11.18;6.82;;;15.30;99.90;;;;;;5033073;28;20026;-80
2021/06/11 01:26:02;;;;;;;7.40;6.00;;;15.20;99.90;;;;;;5033075;28;20013;-80
2021/06/11 01:28:29;;;;;;;10.52;5.88;;;15.00;99.90;;;;;;5034600;28;20052;-80
2021/06/11 01:30:56;;;;;;;7.18;6.03;;;15.20;99.90;;;;;;5034563;28;20044;-80
2021/06/11 01:33:28;;;;;;;8.98;6.20;;;15.10;99.90;;;;;;5032963;28;20034;-81
2021/06/11 01:36:02;;;;;;;7.25;6.03;;;15.00;99.90;;;;;;5032843;28;20095;-80
2021/06/11 01:38:36;;;;;;;7.53;5.50;;;15.10;99.90;;;;;;5034136;28;20025;-80
2021/06/11 01:41:04;;;;;;;8.77;6.22;;;15.20;99.90;;;;;;5034266;28;20431;-80
2021/06/11 01:43:33;;;;;;;6.68;6.05;;;15.30;99.90;;;;;;5032865;28;20061;-80
2021/06/11 01:45:59;;;;;;;8.23;5.82;;;15.10;99.90;;;;;;5034060;28;20528;-80
2021/06/11 01:48:27;;;;;;;8.07;6.20;;;15.10;99.90;;;;;;5032726;28;20067;-80
2021/06/11 01:50:57;;;;;;;7.88;6.18;;;15.30;99.90;;;;;;5032617;28;20036;-80
2021/06/11 01:53:24;;;;;;;9.65;6.28;;;15.30;99.90;;;;;;5032696;28;20044;-80
2021/06/11 01:55:51;;;;;;;7.70;6.00;;;15.40;99.90;;;;;;5033768;28;20036;-80
2021/06/11 01:58:18;;;;;;;8.98;6.43;;;15.30;99.90;;;;;;5032465;28;20040;-80
2021/06/11 02:00:45;;;;;;;10.38;5.78;;;15.30;99.90;;;;;;5032422;28;20026;-80
2021/06/11 02:03:20;;;;;;;12.55;6.55;;;15.10;99.90;;;;;;5032376;28;20112;-80
2021/06/11 02:05:46;;;;;;;8.25;6.80;;;15.00;99.90;;;;;;5032386;28;20029;-80
2021/06/11 02:08:13;;;;;;;7.43;6.55;;;14.80;99.90;;;;;;5032243;28;20033;-80
2021/06/11 02:10:39;;;;;;;6.90;6.30;;;14.70;99.90;;;;;;5033653;28;20104;-80
2021/06/11 02:13:07;;;;;;;9.98;7.15;;;14.70;99.90;;;;;;5032612;28;20489;-80
2021/06/11 02:15:33;;;;;;;7.00;5.60;;;14.70;99.90;;;;;;5033831;28;20021;-80
2021/06/11 02:17:59;;;;;;;7.07;5.90;;;14.90;99.90;;;;;;5032146;28;20079;-80
2021/06/11 02:20:26;;;;;;;7.28;6.20;;;15.20;99.90;;;;;;5033405;28;20025;-80
2021/06/11 02:22:53;;;;;;;7.22;6.05;;;15.20;99.90;;;;;;5032398;28;20053;-80
2021/06/11 02:25:24;;;;;;;10.25;5.95;;;15.00;99.90;;;;;;5015962;28;20025;-80
2021/06/11 02:27:50;;;;;;;7.32;6.43;;;14.80;99.90;;;;;;5033889;28;20047;-80
2021/06/11 02:30:18;;;;;;;10.80;6.60;;;14.60;99.90;;;;;;5032370;28;20481;-80
2021/06/11 02:32:45;;;;;;;7.30;5.95;;;14.50;99.90;;;;;;5033569;28;20052;-80
2021/06/11 02:35:18;;;;;;;7.40;6.47;;;14.70;99.90;;;;;;5015623;28;20056;-80
2021/06/11 02:37:45;;;;;;;6.90;6.20;;;14.70;99.90;;;;;;5033916;28;20100;-80
2021/06/11 02:40:11;;;;;;;7.78;5.72;;;14.90;99.90;;;;;;5031988;28;20018;-80
2021/06/11 02:42:39;;;;;;;6.30;5.53;;;15.00;99.90;;;;;;5015820;28;20060;-80
2021/06/11 02:45:20;;;;;;;6.22;5.63;;;15.10;99.90;;;;;;5032222;28;20026;-80
2021/06/11 02:48:06;;;;;;;6.88;6.18;;;15.00;99.90;;;;;;5032014;28;20021;-80
2021/06/11 02:50:41;;;;;;;7.35;5.43;;;15.10;99.90;;;;;;5033193;28;20093;-79
2021/06/11 02:53:09;;;;;;;9.18;5.47;;;15.10;99.90;;;;;;5033516;28;20084;-79
2021/06/11 02:55:36;;;;;;;8.23;5.65;;;15.10;99.90;;;;;;5032056;28;20021;-79
2021/06/11 02:58:20;;;;;;;8.65;5.45;;;15.00;99.90;;;;;;5031920;28;20060;-79
2021/06/11 03:00:48;;;;;;;6.90;5.83;;;15.00;99.90;;;;;;5033241;28;20028;-79
2021/06/11 03:03:22;;;;;;;8.18;6.07;;;14.90;99.90;;;;;;5031950;28;20744;-80
2021/06/11 03:05:53;;;;;;;7.57;5.88;;;14.80;99.90;;;;;;5033374;28;20092;-80
2021/06/11 03:08:23;;;;;;;10.23;5.97;;;14.80;99.90;;;;;;5033210;28;20033;-80
2021/06/11 03:10:54;;;;;;;5.88;4.90;;;14.80;99.90;;;;;;5033165;28;20026;-79
2021/06/11 03:13:22;;;;;;;6.30;5.45;;;14.50;99.90;;;;;;5031990;28;20057;-80
2021/06/11 03:15:50;;;;;;;6.10;5.43;;;14.60;99.90;;;;;;5033135;28;20481;-80
2021/06/11 03:18:42;;;;;;;5.68;5.07;;;14.80;99.90;;;;;;5031614;28;20057;-80
2021/06/11 03:21:22;;;;;;;7.93;5.03;;;14.80;99.90;;;;;;5033084;28;20042;-80
2021/06/11 03:24:09;;;;;;;6.03;5.32;;;14.90;99.90;;;;;;5036477;28;20037;-80
2021/06/11 03:26:43;;;;;;;6.65;5.45;;;14.80;99.90;;;;;;5034966;28;20064;-80
2021/06/11 03:29:12;;;;;;;6.33;5.67;;;14.90;99.90;;;;;;5036538;28;20025;-80
2021/06/11 03:31:48;;;;;;;10.27;5.10;;;14.90;99.90;;;;;;5036397;28;20029;-80
2021/06/11 03:34:34;;;;;;;6.60;4.88;;;14.80;99.90;;;;;;5018479;28;20030;-80
2021/06/11 03:37:06;;;;;;;5.60;5.07;;;14.70;99.90;;;;;;5036632;28;20049;-80
2021/06/11 03:39:46;;;;;;;9.43;5.20;;;14.70;99.90;;;;;;5018457;28;20484;-80
2021/06/11 03:42:12;;;;;;;8.13;5.43;;;14.90;99.90;;;;;;5034704;28;20495;-80
2021/06/11 03:44:44;;;;;;;8.40;5.55;;;14.80;99.90;;;;;;5018283;28;20099;-80
2021/06/11 03:47:15;;;;;;;8.38;5.80;;;14.90;99.90;;;;;;5034586;28;20064;-80
2021/06/11 03:49:43;;;;;;;6.10;4.95;;;14.80;99.90;;;;;;5036412;28;20029;-80
2021/06/11 03:52:11;;;;;;;6.10;5.10;;;14.80;99.90;;;;;;5034517;28;20485;-80
2021/06/11 03:54:42;;;;;;;5.93;5.35;;;14.70;99.90;;;;;;5035886;28;20495;-80
2021/06/11 03:57:09;;;;;;;6.15;4.95;;;14.60;99.90;;;;;;5034473;28;20033;-80
2021/06/11 03:59:37;;;;;;;7.18;5.05;;;14.60;99.90;;;;;;5034318;28;20077;-80
2021/06/11 04:02:04;;;;;;;6.20;5.05;;;14.50;99.90;;;;;;5017788;28;20396;-80
2021/06/11 04:04:31;;;;;;;5.78;5.07;;;14.40;99.90;;;;;;5034301;28;20029;-80
2021/06/11 04:07:17;;;;;;;5.90;5.40;;;14.40;99.90;;;;;;5017896;28;20489;-80
2021/06/11 04:09:47;;;;;;;6.45;5.57;;;14.60;99.90;;;;;;5035524;28;20396;-80
2021/06/11 04:12:22;;;;;;;8.10;5.78;;;14.60;99.90;;;;;;5035388;28;20021;-80
2021/06/11 04:14:50;;;;;;;5.57;5.03;;;14.50;99.90;;;;;;5034180;28;20037;-80
2021/06/11 04:17:21;;;;;;;9.05;5.07;;;14.50;99.90;;;;;;5034056;28;20025;-80
2021/06/11 04:19:56;;;;;;;9.02;5.63;;;14.70;99.90;;;;;;5033987;28;20043;-80
2021/06/11 04:22:35;;;;;;;5.43;4.55;;;14.80;99.90;;;;;;5031203;28;20026;-79
2021/06/11 04:25:03;;;;;;;12.07;5.43;;;14.90;99.90;;;;;;5034176;28;20108;-79
2021/06/11 04:27:35;;;;;;;9.00;5.45;;;14.80;99.90;;;;;;5033777;28;20389;-79
2021/06/11 04:30:01;;;;;;;8.02;5.28;;;15.00;99.90;;;;;;5033883;28;20057;-79
2021/06/11 04:32:28;;;;;;;8.35;4.90;;;15.10;99.90;;;;;;5033833;28;20455;-79
2021/06/11 04:34:57;;;;;;;5.50;5.00;;;15.20;99.90;;;;;;5032432;28;20504;-79
2021/06/11 04:37:23;;;;;;;6.25;5.65;;;15.30;99.90;;;;;;5034962;28;20033;-79
2021/06/11 04:39:49;;;;;;;13.10;5.70;;;15.30;99.90;;;;;;5033569;28;20021;-79
2021/06/11 04:42:15;;;;;;;6.20;5.18;;;15.30;99.90;;;;;;5017153;28;20026;-79
2021/06/11 04:44:41;;;;;;;6.72;5.00;;;15.30;99.90;;;;;;5033582;28;20046;-79
2021/06/11 04:47:08;;;;;;;6.30;5.70;;;15.40;99.90;;;;;;5033504;28;20030;-79
2021/06/11 04:49:33;;;;;;;6.65;5.80;;;15.40;99.90;;;;;;5033354;28;20118;-79
2021/06/11 04:51:59;;;;;;;7.50;5.55;;;15.30;99.90;;;;;;5033386;28;20025;-79
2021/06/11 04:54:25;;;;;;;6.60;5.60;;;15.40;99.90;;;;;;5033278;28;20370;-79
2021/06/11 04:56:51;;;;;;;6.63;6.03;;;15.30;99.90;;;;;;5033268;28;20389;-79
2021/06/11 04:59:17;;;;;;;6.82;5.90;;;15.30;99.90;;;;;;5033385;28;20406;-79
2021/06/11 05:01:45;;;;;;;8.85;5.53;;;15.20;99.90;;;;;;5016735;28;20025;-79
2021/06/11 05:04:12;;;;;;;7.95;6.00;;;15.40;99.90;;;;;;5034677;28;20473;-79
2021/06/11 05:06:37;;;;;;;8.70;6.03;;;15.50;99.90;;;;;;5033179;28;20435;-79
2021/06/11 05:09:03;;;;;;;8.00;6.13;;;15.40;99.90;;;;;;5032967;28;20022;-80
2021/06/11 05:11:29;;;;;;;6.63;5.93;;;15.30;99.90;;;;;;5032972;28;20025;-80
2021/06/11 05:13:55;;;;;;;8.75;6.43;;;15.40;99.90;;;;;;5032987;28;20509;-80
2021/06/11 05:16:20;;;;;;;10.68;5.75;;;15.40;99.90;;;;;;5032882;28;20033;-80
2021/06/11 05:18:46;;;;;;;7.70;5.55;;;15.50;99.90;;;;;;5032711;28;20053;-79
2021/06/11 05:21:12;;;;;;;8.43;6.20;;;15.50;99.90;;;;;;5032851;28;20022;-79
2021/06/11 05:23:38;;;;;;;7.03;6.43;;;15.60;99.90;;;;;;5034054;28;20053;-79
2021/06/11 05:26:03;;;;;;;10.93;5.88;;;15.60;99.90;;;;;;5033989;28;20078;-79
2021/06/11 05:28:29;;;;;;;6.75;5.85;;;15.50;99.90;;;;;;5032701;28;20025;-80
2021/06/11 05:30:55;;;;;;;6.90;6.18;;;15.60;99.90;;;;;;5032621;28;20040;-79
2021/06/11 05:33:22;;;;;;;6.53;5.93;;;15.70;99.90;;;;;;5033882;28;20025;-80
2021/06/11 05:35:50;;;;;;;9.13;6.45;;;15.70;99.90;;;;;;5032481;28;20057;-80
2021/06/11 05:38:17;;;;;;;10.48;6.13;;;15.80;99.90;;;;;;5033704;28;20025;-80
2021/06/11 05:40:43;;;;;;;8.05;6.35;;;15.80;99.90;;;;;;5032482;28;20021;-80
2021/06/11 05:43:09;;;;;;;9.60;7.07;;;16.00;99.90;;;;;;5032443;28;20485;-80
2021/06/11 05:45:35;;;;;;;7.53;6.80;;;16.00;99.90;;;;;;5032108;28;20028;-79
2021/06/11 05:48:02;;;;;;;8.32;6.28;;;15.90;99.90;;;;;;5033633;28;20026;-79
2021/06/11 05:50:29;;;;;;;10.10;6.82;;;16.00;99.90;;;;;;5033731;28;20033;-79
2021/06/11 05:52:56;;;;;;;6.88;6.10;;;16.10;99.90;;;;;;5032471;28;20048;-80
2021/06/11 05:55:22;;;;;;;7.18;6.47;;;16.20;99.90;;;;;;5015965;28;20029;-80
2021/06/11 05:57:48;;;;;;;14.10;7.93;;;16.30;99.90;;;;;;5033516;28;20031;-80
2021/06/11 06:00:14;;;;;;;9.57;7.55;;;16.40;99.90;;;;;;5032205;28;20495;-80
2021/06/11 06:02:40;;;;;;;8.40;7.60;;;16.40;99.90;;;;;;5032189;28;20032;-79
2021/06/11 06:05:08;;;;;;;10.63;7.55;;;16.40;99.90;;;;;;5033436;28;20053;-80
2021/06/11 06:07:38;;;;;;;12.27;7.70;;;16.40;99.90;;;;;;5032118;28;20071;-80
2021/06/11 06:10:08;;;;;;;8.48;7.57;;;16.50;99.90;;;;;;5032100;28;20018;-80
2021/06/11 06:12:34;;;;;;;7.95;6.82;;;16.60;99.90;;;;;;5029339;28;20021;-80
2021/06/11 06:15:00;;;;;;;7.82;7.07;;;16.60;99.90;;;;;;5032025;28;20022;-80
2021/06/11 06:17:27;;;;;;;11.60;8.95;;;16.80;99.90;;;;;;5032049;28;20071;-80
2021/06/11 06:19:53;;;;;;;9.15;8.25;;;16.80;99.90;;;;;;5031947;28;20112;-80
2021/06/11 06:22:18;;;;;;;9.45;8.27;;;16.90;99.90;;;;;;5031932;28;20107;-80
2021/06/11 06:24:44;;;;;;;9.63;8.38;;;16.90;99.90;;;;;;5031868;28;20026;-80
2021/06/11 06:27:10;;;;;;;11.23;8.75;;;16.90;99.90;;;;;;5033172;28;20018;-80
2021/06/11 06:29:35;;;;;;;9.95;8.95;;;17.00;99.90;;;;;;5032595;28;20025;-80
2021/06/11 06:32:04;;;;;;;12.40;9.15;;;17.10;99.90;;;;;;5033087;28;20026;-80
2021/06/11 06:34:30;;;;;;;10.73;7.43;;;17.20;99.90;;;;;;5031480;28;20025;-80
2021/06/11 06:36:55;;;;;;;8.00;7.30;;;17.20;99.90;;;;;;5031826;28;20129;-80
2021/06/11 06:39:21;;;;;;;8.82;7.95;;;17.30;99.90;;;;;;5031734;28;20029;-80
2021/06/11 06:41:47;;;;;;;9.98;8.68;;;17.40;99.90;;;;;;5033306;28;20030;-80
2021/06/11 06:44:13;;;;;;;9.82;8.73;;;17.40;99.90;;;;;;5031732;28;20033;-80
2021/06/11 06:46:39;;;;;;;11.48;9.00;;;17.50;99.90;;;;;;5032951;28;20049;-80
2021/06/11 06:49:07;;;;;;;10.60;9.25;;;17.60;99.90;;;;;;5031734;28;20397;-80
2021/06/11 06:51:34;;;;;;;12.77;8.80;;;17.70;99.90;;;;;;5033246;28;20105;-80
2021/06/11 06:54:02;;;;;;;7.18;6.47;;;17.80;99.90;;;;;;5033189;28;20037;-80
2021/06/11 06:56:28;;;;;;;10.32;9.05;;;17.90;99.90;;;;;;5031618;28;20033;-80
2021/06/11 06:58:55;;;;;;;9.43;8.50;;;18.00;99.90;;;;;;5035281;28;20068;-80
2021/06/11 07:01:24;;;;;;;11.23;9.32;;;18.20;99.90;;;;;;5035463;28;20112;-80
2021/06/11 07:03:50;;;;;;;17.15;10.25;;;18.30;99.90;;;;;;5035429;28;20026;-80
2021/06/11 07:06:16;;;;;;;12.02;10.80;;;18.50;99.90;;;;;;5035385;28;20075;-80
2021/06/11 07:08:42;;;;;;;13.23;10.73;;;18.60;99.90;;;;;;5035294;28;20033;-80
2021/06/11 07:11:08;;;;;;;11.60;10.45;;;18.70;99.90;;;;;;5035278;28;20124;-79
2021/06/11 07:13:33;;;;;;;14.32;10.80;;;18.80;99.90;;;;;;5036532;28;20017;-79
2021/06/11 07:15:59;;;;;;;11.98;10.73;;;18.90;99.90;;;;;;5035215;28;20051;-79
2021/06/11 07:18:26;;;;;;;11.23;9.65;;;18.90;99.90;;;;;;5035097;28;20467;-79
2021/06/11 07:20:51;;;;;;;12.40;9.10;;;19.10;99.90;;;;;;5035146;28;20401;-79
2021/06/11 07:23:17;;;;;;;13.55;11.05;;;19.20;99.90;;;;;;5035347;28;20087;-79
2021/06/11 07:25:43;;;;;;;11.85;9.85;;;19.20;99.90;;;;;;5036335;28;20022;-79
2021/06/11 07:28:08;;;;;;;13.02;10.60;;;19.40;99.90;;;;;;5036311;28;20100;-79
2021/06/11 07:30:34;;;;;;;13.43;10.40;;;19.50;99.90;;;;;;5036236;28;20036;-79
2021/06/11 07:33:00;;;;;;;7.80;7.10;;;19.70;99.90;;;;;;5034897;28;20029;-79
2021/06/11 07:35:26;;;;;;;12.32;10.93;;;19.70;99.90;;;;;;5034608;28;20053;-79
2021/06/11 07:37:51;;;;;;;11.90;9.32;;;19.70;99.90;;;;;;5035971;28;20495;-79
2021/06/11 07:40:17;;;;;;;13.35;10.00;;;19.90;99.90;;;;;;5034705;28;20078;-79
2021/06/11 07:42:43;;;;;;;15.13;12.65;;;20.00;99.90;;;;;;5034727;28;20472;-79
2021/06/11 07:45:10;;;;;;;12.65;10.90;;;20.10;99.90;;;;;;5034682;28;20031;-79
2021/06/11 07:47:36;;;;;;;11.00;9.90;;;20.30;99.90;;;;;;5035952;28;20380;-79
2021/06/11 07:50:04;;;;;;;12.43;10.85;;;20.30;99.90;;;;;;5035846;28;20477;-79
2021/06/11 07:52:31;;;;;;;16.23;12.75;;;20.30;99.90;;;;;;5034466;28;20026;-79
2021/06/11 07:54:57;;;;;;;13.60;12.20;;;20.40;99.90;;;;;;5035820;28;20052;-79
2021/06/11 07:57:22;;;;;;;15.15;13.52;;;20.50;99.90;;;;;;5034540;28;20029;-79
2021/06/11 07:59:48;;;;;;;16.58;11.90;;;20.70;99.90;;;;;;5034283;28;20511;-79
2021/06/11 08:02:15;;;;;;;14.13;12.38;;;20.80;99.90;;;;;;5036139;28;20104;-79
2021/06/11 08:04:41;;;;;;;14.90;13.50;;;20.90;99.90;;;;;;5035875;28;20071;-79
2021/06/11 08:07:06;;;;;;;14.40;12.52;;;21.00;99.90;;;;;;5036084;28;20022;-78
2021/06/11 08:09:33;;;;;;;16.45;12.00;;;21.10;99.90;;;;;;5035377;28;20032;-79
2021/06/11 08:11:59;;;;;;;13.40;12.07;;;21.30;99.90;;;;;;5034078;28;20025;-79
2021/06/11 08:14:25;;;;;;;20.33;12.88;;;21.40;99.90;;;;;;5034455;28;20033;-79
2021/06/11 08:16:51;;;;;;;17.48;13.60;;;21.40;99.90;;;;;;5036098;28;20030;-79
2021/06/11 08:19:16;;;;;;;19.05;13.13;;;21.40;99.90;;;;;;5034562;28;20064;-78
2021/06/11 08:21:42;;;;;;;18.38;12.93;;;21.50;99.90;;;;;;5034021;28;20362;-79
2021/06/11 08:24:08;;;;;;;19.25;13.70;;;21.60;99.90;;;;;;5035261;28;20021;-78
2021/06/11 08:26:34;;;;;;;17.67;12.95;;;21.70;99.90;;;;;;5033908;28;20564;-78
2021/06/11 08:29:00;;;;;;;17.05;14.05;;;21.70;99.90;;;;;;5035241;28;20029;-79
2021/06/11 08:31:26;;;;;;;13.82;11.50;;;21.60;99.90;;;;;;5035455;28;20022;-78
2021/06/11 08:33:51;;;;;;;17.40;11.57;;;21.80;99.90;;;;;;5035067;28;20030;-78
2021/06/11 08:36:17;;;;;;;17.35;12.18;;;22.00;99.90;;;;;;5033587;28;20057;-78
2021/06/11 08:38:43;;;;;;;13.60;12.30;;;22.10;99.90;;;;;;5033688;28;20476;-78
2021/06/11 08:41:12;;;;;;;13.07;11.20;;;22.10;99.90;;;;;;5033656;28;20029;-79
2021/06/11 08:43:38;;;;;;;13.52;12.10;;;22.20;99.90;;;;;;5034839;28;20021;-79
2021/06/11 08:46:05;;;;;;;11.15;10.05;;;22.40;99.90;;;;;;5033538;28;20021;-78
2021/06/11 08:48:30;;;;;;;12.85;10.13;;;22.50;99.90;;;;;;5034807;28;20029;-78
2021/06/11 08:50:56;;;;;;;14.00;10.18;;;22.60;99.90;;;;;;5034732;28;20445;-78
2021/06/11 08:53:22;;;;;;;12.73;8.73;;;22.60;99.90;;;;;;5034683;28;20030;-79
2021/06/11 08:55:48;;;;;;;13.50;10.23;;;22.60;99.90;;;;;;5033351;28;20068;-78
2021/06/11 08:58:14;;;;;;;12.75;9.27;;;22.70;99.90;;;;;;5035083;28;20112;-78
2021/06/11 09:00:41;;;;;;;11.68;9.45;;;22.70;99.90;;;;;;5034543;28;20171;-78
2021/06/11 09:03:17;;;;;;;13.68;9.32;;;22.90;99.90;;;;;;5033196;28;20028;-78
2021/06/11 09:06:04;;;;;;;15.95;9.68;;;23.20;99.90;;;;;;5033119;28;20026;-78
2021/06/11 09:08:31;;;;;;;10.68;8.70;;;23.30;99.90;;;;;;5033157;28;20063;-78
2021/06/11 09:11:14;;;;;;;13.60;9.48;;;23.60;99.90;;;;;;5033512;28;20025;-78
2021/06/11 09:13:42;;;;;;;10.32;8.57;;;23.50;99.90;;;;;;5034222;28;20160;-78
2021/06/11 09:16:08;;;;;;;10.68;8.60;;;23.40;99.90;;;;;;5032930;28;20038;-78
2021/06/11 09:18:45;;;;;;;9.40;8.52;;;23.50;99.90;;;;;;5034113;28;20488;-78
2021/06/11 09:21:47;;;;;;;12.65;9.07;;;23.70;99.90;;;;;;5033653;28;20025;-78
2021/06/11 09:24:24;;;;;;;10.30;8.10;;;23.90;99.90;;;;;;5001770;28;20461;-78
2021/06/11 09:29:43;;;;;;;8.63;7.72;;;23.90;99.90;;;;;;5033942;28;20557;-78
2021/06/11 09:32:13;;;;;;;10.02;8.23;;;23.80;99.90;;;;;;5032692;28;20025;-78
2021/06/11 09:34:40;;;;;;;9.05;8.15;;;24.10;99.90;;;;;;5032359;28;20032;-78
2021/06/11 09:37:12;;;;;;;15.10;8.57;;;24.30;99.90;;;;;;5032676;28;20523;-78
2021/06/11 09:39:39;;;;;;;12.07;7.55;;;24.20;99.90;;;;;;5033823;28;20037;-79
2021/06/11 09:42:07;;;;;;;9.07;7.05;;;24.00;99.90;;;;;;5032548;28;20108;-79
2021/06/11 09:44:32;;;;;;;9.20;7.88;;;23.70;99.90;;;;;;5033764;28;20029;-78
2021/06/11 09:46:58;;;;;;;11.05;7.45;;;23.40;99.90;;;;;;5033679;28;20477;-78
2021/06/11 09:49:26;;;;;;;10.48;7.35;;;23.20;99.90;;;;;;5033971;28;20080;-79
2021/06/11 09:52:06;;;;;;;10.38;8.35;;;23.10;99.90;;;;;;5033613;28;20029;-79
2021/06/11 09:54:32;;;;;;;9.70;8.38;;;22.90;99.90;;;;;;5033839;28;20511;-78
2021/06/11 09:57:16;;;;;;;14.07;7.00;;;23.00;99.90;;;;;;5033606;28;20036;-78
2021/06/11 09:59:43;;;;;;;10.80;7.40;;;23.70;99.90;;;;;;5032198;28;20025;-78
2021/06/11 10:02:17;;;;;;;12.30;7.03;;;24.50;99.90;;;;;;5033748;28;20022;-78
2021/06/11 10:04:45;;;;;;;11.15;6.88;;;25.10;99.90;;;;;;5032108;28;20029;-79
2021/06/11 10:07:12;;;;;;;9.65;6.20;;;25.30;99.90;;;;;;5032151;28;20548;-78
2021/06/11 10:09:39;;;;;;;9.13;4.78;;;25.30;99.90;;;;;;5032100;28;20056;-78
2021/06/11 10:12:06;;;;;;;8.93;4.35;;;25.50;99.90;;;;;;5033412;28;20033;-79
2021/06/11 10:14:32;;;;;;;6.95;5.20;;;25.90;99.90;;;;;;5032005;28;20033;-78
2021/06/11 10:16:58;;;;;;;5.63;4.88;;;26.00;99.90;;;;;;5033293;28;20034;-78
2021/06/11 10:19:25;;;;;;;5.38;4.88;;;26.10;99.90;;;;;;5032356;28;20138;-78
2021/06/11 10:21:52;;;;;;;9.23;4.65;;;26.10;99.90;;;;;;5033253;28;20411;-79
2021/06/11 10:24:20;;;;;;;12.93;4.80;;;26.10;99.90;;;;;;5033214;28;20469;-78
2021/06/11 10:26:47;;;;;;;7.18;4.40;;;26.30;99.90;;;;;;5032252;28;20025;-78
2021/06/11 10:29:18;;;;;;;9.00;3.78;;;26.50;99.90;;;;;;5033201;28;20029;-78
2021/06/11 10:31:45;;;;;;;5.28;3.78;;;26.80;99.90;;;;;;5032440;28;20032;-78
2021/06/11 10:34:11;;;;;;;6.70;3.50;;;26.90;97.80;;;;;;5037049;28;20420;-78
2021/06/11 10:36:46;;;;;;;4.10;3.70;;;27.10;98.80;;;;;;5035848;28;20041;-78
2021/06/11 10:39:16;;;;;;;6.45;4.00;;;27.30;98.60;;;;;;5037706;28;20029;-79
2021/06/11 10:41:58;;;;;;;8.00;4.00;;;27.50;96.60;;;;;;5037409;28;20028;-79
2021/06/11 10:44:48;;;;;;;5.65;3.85;;;27.90;98.70;;;;;;5037115;28;20100;-78
2021/06/11 10:47:17;;;;;;;11.70;3.42;;;27.50;94.90;;;;;;5035885;28;20025;-79
2021/06/11 10:49:58;;;;;;;7.38;3.58;;;27.90;95.50;;;;;;5037092;28;20036;-79
2021/06/11 10:52:36;;;;;;;5.55;3.92;;;27.90;95.90;;;;;;5036805;28;20108;-78
2021/06/11 10:55:14;;;;;;;5.80;3.75;;;28.00;96.50;;;;;;5035660;28;20432;-78
2021/06/11 10:57:44;;;;;;;5.88;3.85;;;28.10;95.70;;;;;;5035667;28;20026;-78
2021/06/11 11:00:34;;;;;;;5.10;4.13;;;28.50;95.30;;;;;;5036004;28;20473;-79
2021/06/11 11:03:02;;;;;;;8.98;4.03;;;28.30;93.60;;;;;;5027003;28;20459;-79
2021/06/11 11:05:32;;;;;;;6.72;3.95;;;27.80;94.00;;;;;;5035474;28;20405;-79
2021/06/11 11:08:00;;;;;;;9.07;4.07;;;26.90;95.00;;;;;;5036991;28;20017;-79
2021/06/11 11:10:52;;;;;;;5.57;3.67;;;26.10;96.00;;;;;;5036634;28;20092;-79
2021/06/11 11:13:28;;;;;;;5.18;4.05;;;25.40;96.70;;;;;;5028550;28;20033;-79
2021/06/11 11:15:56;;;;;;;5.28;3.80;;;25.60;98.50;;;;;;5035288;28;20025;-78
2021/06/11 11:18:34;;;;;;;4.65;3.90;;;26.40;95.60;;;;;;5036647;28;20124;-78
2021/06/11 11:21:20;;;;;;;4.32;3.92;;;27.40;95.70;;;;;;5036454;28;20044;-78
2021/06/11 11:23:51;;;;;;;6.43;3.97;;;28.40;99.90;;;;;;5035189;28;20029;-79
2021/06/11 11:26:36;;;;;;;6.18;3.47;;;28.50;94.10;;;;;;5035128;28;20022;-79
2021/06/11 11:29:02;;;;;;;7.57;3.63;;;28.70;92.00;;;;;;5036341;28;20432;-79
2021/06/11 11:31:28;;;;;;;3.50;3.17;;;28.90;90.40;;;;;;5035002;28;20033;-79
2021/06/11 11:33:54;;;;;;;4.50;3.35;;;29.00;90.00;;;;;;5035371;28;20034;-78
2021/06/11 11:36:22;;;;;;;3.53;3.20;;;29.00;91.10;;;;;;5034684;28;20080;-78
2021/06/11 11:38:48;;;;;;;5.03;3.50;;;28.60;89.00;;;;;;5036323;28;20025;-78
2021/06/11 11:41:13;;;;;;;4.00;3.30;;;28.80;90.80;;;;;;5034846;28;20022;-79
2021/06/11 11:43:39;;;;;;;4.00;3.47;;;28.90;87.50;;;;;;5035860;28;20026;-79
2021/06/11 11:46:04;;;;;;;4.43;3.20;;;28.80;87.60;;;;;;5035038;28;20025;-79
2021/06/11 11:48:30;;;;;;;4.55;3.20;;;28.10;90.40;;;;;;5035955;28;20025;-79
2021/06/11 11:50:56;;;;;;;5.20;3.00;;;28.00;90.10;;;;;;5035845;28;20029;-79
2021/06/11 11:53:24;;;;;;;5.53;2.78;;;28.90;90.80;;;;;;5034559;28;20551;-78
2021/06/11 11:55:50;;;;;;;4.97;2.90;;;29.50;86.20;;;;;;5034560;28;20155;-79
2021/06/11 11:58:16;;;;;;;7.43;2.90;;;30.00;85.80;;;;;;5034530;28;20533;-79
2021/06/11 12:00:42;;;;;;;4.28;3.13;;;30.60;84.70;;;;;;5034496;28;20024;-79
2021/06/11 12:03:08;;;;;;;5.55;3.40;;;30.90;85.30;;;;;;5035682;28;20087;-79
2021/06/11 12:05:34;;;;;;;5.18;3.13;;;30.30;85.80;;;;;;5035737;28;20102;-79
2021/06/11 12:07:59;;;;;;;7.22;3.15;;;29.90;84.70;;;;;;5035622;28;20026;-79
2021/06/11 12:10:26;;;;;;;6.82;3.03;;;29.30;85.50;;;;;;5034307;28;20392;-79
2021/06/11 12:12:53;;;;;;;3.17;2.58;;;29.90;82.00;;;;;;5035552;28;20025;-78
2021/06/11 12:15:19;;;;;;;3.22;2.50;;;30.40;81.80;;;;;;5034200;28;20622;-79
2021/06/11 12:17:45;;;;;;;3.70;2.95;;;30.90;81.10;;;;;;5034120;28;20056;-79
2021/06/11 12:20:11;;;;;;;3.20;2.80;;;30.80;81.20;;;;;;5035921;28;20369;-79
2021/06/11 12:22:37;;;;;;;3.55;3.00;;;31.00;81.00;;;;;;5033953;28;20022;-79
2021/06/11 12:25:04;;;;;;;4.82;3.25;;;31.50;78.90;;;;;;5034034;28;20021;-79
2021/06/11 12:27:30;;;;;;;3.83;3.10;;;31.40;79.10;;;;;;5035260;28;20029;-79
2021/06/11 12:29:55;;;;;;;3.42;3.05;;;31.10;78.10;;;;;;5035532;28;20036;-79
2021/06/11 12:32:21;;;;;;;5.15;2.80;;;31.10;76.20;;;;;;5035168;28;20025;-79
2021/06/11 12:34:47;;;;;;;5.25;2.78;;;31.60;80.60;;;;;;5034855;28;20068;-79
2021/06/11 12:37:13;;;;;;;8.02;2.90;;;31.50;74.50;;;;;;5034936;28;20037;-79
2021/06/11 12:39:38;;;;;;;7.75;3.03;;;30.90;78.00;;;;;;5034900;28;20035;-79
2021/06/11 12:42:15;;;;;;;4.40;3.67;;;31.00;80.20;;;;;;5034918;28;20108;-79
2021/06/11 12:44:42;;;;;;;5.80;3.35;;;31.10;79.10;;;;;;5034914;28;20032;-79
2021/06/11 12:47:10;;;;;;;4.93;3.20;;;31.50;79.10;;;;;;5033645;28;20097;-79
2021/06/11 12:49:36;;;;;;;3.45;2.95;;;31.40;78.30;;;;;;5033537;28;20029;-79
2021/06/11 12:52:03;;;;;;;3.22;2.88;;;31.60;75.70;;;;;;5034790;28;20075;-79